createdAt,value
2017-06-01T00:00:35.909Z,0
2017-06-01T00:01:51.765Z,0
2017-06-01T00:03:07.177Z,0
2017-06-01T00:04:22.814Z,0
2017-06-01T00:05:38.383Z,0
2017-06-01T00:06:52.797Z,0
2017-06-01T00:08:08.190Z,0
2017-06-01T00:09:23.596Z,0
2017-06-01T00:10:38.978Z,0
2017-06-01T00:11:53.369Z,0
2017-06-01T00:13:08.847Z,0
2017-06-01T00:14:23.941Z,0
2017-06-01T00:15:39.320Z,0
2017-06-01T00:16:53.685Z,0
2017-06-01T00:18:09.165Z,0
2017-06-01T00:19:24.822Z,0
2017-06-01T00:20:40.289Z,0
2017-06-01T00:21:54.603Z,0
2017-06-01T00:23:10.052Z,0
2017-06-01T00:24:25.630Z,0
2017-06-01T00:25:41.085Z,0
2017-06-01T00:26:57.104Z,0
2017-06-01T00:28:12.562Z,0
2017-06-01T00:29:28.097Z,0
2017-06-01T00:30:43.448Z,0
2017-06-01T00:31:59.249Z,0
2017-06-01T00:33:14.688Z,0
2017-06-01T00:34:30.141Z,0
2017-06-01T00:35:45.627Z,0
2017-06-01T00:37:00.287Z,0
2017-06-01T00:38:15.753Z,0
2017-06-01T00:39:29.912Z,0
2017-06-01T00:40:45.376Z,0
2017-06-01T00:42:01.096Z,0
2017-06-01T00:43:16.835Z,0
2017-06-01T00:44:32.311Z,0
2017-06-01T00:45:47.777Z,0
2017-06-01T00:47:03.123Z,0
2017-06-01T00:48:18.599Z,0
2017-06-01T00:49:34.235Z,0
2017-06-01T00:50:49.668Z,0
2017-06-01T00:52:05.385Z,0
2017-06-01T00:53:19.179Z,0
2017-06-01T00:54:33.343Z,0
2017-06-01T00:55:47.472Z,0
2017-06-01T00:57:01.899Z,0
2017-06-01T00:58:17.334Z,0
2017-06-01T00:59:31.397Z,0
2017-06-01T01:00:46.840Z,0
2017-06-01T01:02:02.535Z,0
2017-06-01T01:03:17.976Z,0
2017-06-01T01:04:33.172Z,0
2017-06-01T01:05:48.567Z,0
2017-06-01T01:07:04.303Z,0
2017-06-01T01:08:19.795Z,0
2017-06-01T01:09:34.003Z,0
2017-06-01T01:10:48.180Z,0
2017-06-01T01:12:03.882Z,0
2017-06-01T01:13:19.456Z,0
2017-06-01T01:14:34.867Z,0
2017-06-01T01:15:50.304Z,0
2017-06-01T01:17:05.980Z,0
2017-06-01T01:18:21.435Z,0
2017-06-01T01:19:34.596Z,0
2017-06-01T01:20:50.038Z,0
2017-06-01T01:22:05.484Z,0
2017-06-01T01:23:21.208Z,0
2017-06-01T01:24:36.813Z,0
2017-06-01T01:25:52.499Z,0
2017-06-01T01:27:06.555Z,0
2017-06-01T01:28:22.247Z,0
2017-06-01T01:29:37.657Z,0
2017-06-01T01:30:53.099Z,0
2017-06-01T01:32:08.577Z,0
2017-06-01T01:33:22.953Z,0
2017-06-01T01:34:38.462Z,0
2017-06-01T01:35:52.466Z,0
2017-06-01T01:37:07.967Z,0
2017-06-01T01:38:23.557Z,0
2017-06-01T01:39:38.978Z,0
2017-06-01T01:40:54.493Z,0
2017-06-01T01:42:09.935Z,0
2017-06-01T01:43:24.303Z,0
2017-06-01T01:44:39.822Z,0
2017-06-01T01:45:55.287Z,0
2017-06-01T01:47:10.754Z,0
2017-06-01T01:48:23.660Z,0
2017-06-01T01:49:37.764Z,0
2017-06-01T01:50:53.446Z,0
2017-06-01T01:52:08.929Z,0
2017-06-01T01:53:24.586Z,0
2017-06-01T01:54:40.031Z,0
2017-06-01T01:55:55.548Z,0
2017-06-01T01:57:09.676Z,0
2017-06-01T01:58:24.032Z,0
2017-06-01T01:59:39.475Z,0
2017-06-01T02:00:54.963Z,0
2017-06-01T02:02:10.380Z,0
2017-06-01T02:03:26.067Z,0
2017-06-01T02:04:41.549Z,0
2017-06-01T02:05:57.060Z,0
2017-06-01T02:07:12.534Z,0
2017-06-01T02:08:28.179Z,0
2017-06-01T02:09:41.263Z,0
2017-06-01T02:10:56.698Z,0
2017-06-01T02:12:10.873Z,0
2017-06-01T02:13:23.686Z,0
2017-06-01T02:14:39.315Z,0
2017-06-01T02:15:54.709Z,4
2017-06-01T02:17:10.143Z,0
2017-06-01T02:18:25.556Z,0
2017-06-01T02:19:41.210Z,4
2017-06-01T02:20:56.861Z,4
2017-06-01T02:22:12.220Z,4
2017-06-01T02:23:27.826Z,4
2017-06-01T02:24:43.494Z,4
2017-06-01T02:25:58.871Z,4
2017-06-01T02:27:11.690Z,4
2017-06-01T02:28:27.426Z,8
2017-06-01T02:29:42.851Z,8
2017-06-01T02:30:58.492Z,12
2017-06-01T02:32:13.927Z,16
2017-06-01T02:33:28.304Z,16
2017-06-01T02:34:43.951Z,20
2017-06-01T02:35:59.338Z,20
2017-06-01T02:37:14.832Z,24
2017-06-01T02:38:30.302Z,28
2017-06-01T02:39:45.803Z,36
2017-06-01T02:41:01.269Z,44
2017-06-01T02:42:16.640Z,48
2017-06-01T02:43:30.755Z,56
2017-06-01T02:44:46.196Z,60
2017-06-01T02:46:01.665Z,72
2017-06-01T02:47:14.305Z,80
2017-06-01T02:48:26.983Z,92
2017-06-01T02:49:42.705Z,108
2017-06-01T02:50:58.332Z,120
2017-06-01T02:52:14.001Z,136
2017-06-01T02:53:29.429Z,152
2017-06-01T02:54:45.026Z,172
2017-06-01T02:56:00.522Z,188
2017-06-01T02:57:14.602Z,208
2017-06-01T02:58:27.161Z,232
2017-06-01T02:59:41.654Z,252
2017-06-01T03:00:57.182Z,276
2017-06-01T03:02:12.610Z,300
2017-06-01T03:03:28.135Z,328
2017-06-01T03:04:43.731Z,356
2017-06-01T03:05:57.870Z,384
2017-06-01T03:07:13.033Z,416
2017-06-01T03:08:28.494Z,448
2017-06-01T03:09:44.134Z,480
2017-06-01T03:10:59.539Z,512
2017-06-01T03:12:14.950Z,548
2017-06-01T03:13:30.349Z,580
2017-06-01T03:14:46.012Z,616
2017-06-01T03:16:01.719Z,648
2017-06-01T03:17:17.155Z,684
2017-06-01T03:18:32.556Z,720
2017-06-01T03:19:48.221Z,760
2017-06-01T03:21:03.656Z,796
2017-06-01T03:22:19.118Z,832
2017-06-01T03:23:34.671Z,868
2017-06-01T03:24:50.281Z,904
2017-06-01T03:26:05.798Z,944
2017-06-01T03:27:21.462Z,980
2017-06-01T03:28:35.613Z,1016
2017-06-01T03:29:49.746Z,1052
2017-06-01T03:31:05.363Z,1088
2017-06-01T03:32:20.810Z,1124
2017-06-01T03:33:34.948Z,1164
2017-06-01T03:34:49.100Z,1200
2017-06-01T03:36:03.400Z,1232
2017-06-01T03:37:18.916Z,1272
2017-06-01T03:38:33.314Z,1304
2017-06-01T03:39:47.469Z,1340
2017-06-01T03:41:03.117Z,1376
2017-06-01T03:42:17.149Z,1408
2017-06-01T03:43:32.511Z,1444
2017-06-01T03:44:48.002Z,1480
2017-06-01T03:46:03.414Z,1516
2017-06-01T03:47:18.898Z,1548
2017-06-01T03:48:34.350Z,1584
2017-06-01T03:49:49.826Z,1616
2017-06-01T03:51:05.449Z,1648
2017-06-01T03:52:20.965Z,1680
2017-06-01T03:53:36.377Z,1716
2017-06-01T03:54:52.160Z,1752
2017-06-01T03:56:07.850Z,1784
2017-06-01T03:57:21.841Z,1816
2017-06-01T03:58:37.321Z,1852
2017-06-01T03:59:52.725Z,1884
2017-06-01T04:01:07.089Z,1916
2017-06-01T04:02:22.541Z,1948
2017-06-01T04:03:38.024Z,1980
2017-06-01T04:04:53.497Z,2012
2017-06-01T04:06:09.423Z,2044
2017-06-01T04:07:24.872Z,2076
2017-06-01T04:08:40.297Z,2108
2017-06-01T04:09:55.783Z,2140
2017-06-01T04:11:11.464Z,2172
2017-06-01T04:12:26.913Z,2204
2017-06-01T04:13:42.682Z,2232
2017-06-01T04:14:58.126Z,2264
2017-06-01T04:16:13.782Z,2300
2017-06-01T04:17:29.244Z,2336
2017-06-01T04:18:44.739Z,2364
2017-06-01T04:20:00.247Z,2396
2017-06-01T04:21:15.914Z,2428
2017-06-01T04:22:31.379Z,2464
2017-06-01T04:23:45.516Z,2500
2017-06-01T04:25:00.966Z,2540
2017-06-01T04:26:16.598Z,2568
2017-06-01T04:27:31.980Z,2600
2017-06-01T04:28:47.550Z,2636
2017-06-01T04:30:01.698Z,2668
2017-06-01T04:31:15.919Z,2700
2017-06-01T04:32:31.337Z,2732
2017-06-01T04:33:47.227Z,2768
2017-06-01T04:35:02.684Z,2808
2017-06-01T04:36:18.327Z,2836
2017-06-01T04:37:33.752Z,2872
2017-06-01T04:38:49.185Z,2904
2017-06-01T04:40:04.667Z,2936
2017-06-01T04:41:20.732Z,2964
2017-06-01T04:42:34.704Z,2992
2017-06-01T04:43:50.129Z,3028
2017-06-01T04:45:05.182Z,3064
2017-06-01T04:46:20.654Z,3092
2017-06-01T04:47:35.910Z,3120
2017-06-01T04:48:51.397Z,3148
2017-06-01T04:50:06.842Z,3180
2017-06-01T04:51:22.261Z,3216
2017-06-01T04:52:37.978Z,3240
2017-06-01T04:53:52.134Z,3264
2017-06-01T04:55:07.589Z,3288
2017-06-01T04:56:23.101Z,3320
2017-06-01T04:57:37.361Z,3352
2017-06-01T04:58:52.952Z,3384
2017-06-01T05:00:08.592Z,3408
2017-06-01T05:01:24.056Z,3432
2017-06-01T05:02:38.526Z,3460
2017-06-01T05:03:53.958Z,3488
2017-06-01T05:05:09.371Z,3516
2017-06-01T05:06:24.819Z,3552
2017-06-01T05:07:40.527Z,3588
2017-06-01T05:08:55.924Z,3608
2017-06-01T05:10:11.377Z,3628
2017-06-01T05:11:26.748Z,3644
2017-06-01T05:12:42.540Z,3664
2017-06-01T05:13:56.876Z,3692
2017-06-01T05:15:12.294Z,3716
2017-06-01T05:16:27.749Z,3736
2017-06-01T05:17:43.360Z,3764
2017-06-01T05:18:58.524Z,3780
2017-06-01T05:20:14.171Z,3816
2017-06-01T05:21:29.644Z,3832
2017-06-01T05:22:45.202Z,3852
2017-06-01T05:24:00.683Z,3868
2017-06-01T05:25:14.871Z,3896
2017-06-01T05:26:29.017Z,3920
2017-06-01T05:27:45.023Z,3948
2017-06-01T05:29:00.482Z,3968
2017-06-01T05:30:15.790Z,3980
2017-06-01T05:31:30.338Z,4004
2017-06-01T05:32:46.049Z,4028
2017-06-01T05:34:01.495Z,4052
2017-06-01T05:35:17.269Z,4084
2017-06-01T05:36:32.729Z,4108
2017-06-01T05:37:48.436Z,4124
2017-06-01T05:39:03.860Z,4144
2017-06-01T05:40:19.560Z,4172
2017-06-01T05:41:34.992Z,4204
2017-06-01T05:42:51.034Z,4240
2017-06-01T05:44:06.432Z,4224
2017-06-01T05:45:21.811Z,4252
2017-06-01T05:46:37.359Z,4304
2017-06-01T05:47:52.993Z,4288
2017-06-01T05:49:07.239Z,4192
2017-06-01T05:50:21.233Z,4300
2017-06-01T05:51:36.874Z,4292
2017-06-01T05:52:51.242Z,4360
2017-06-01T05:54:06.688Z,4388
2017-06-01T05:55:22.166Z,4392
2017-06-01T05:56:37.579Z,4364
2017-06-01T05:57:53.307Z,4376
2017-06-01T05:59:08.841Z,4400
2017-06-01T06:00:22.966Z,4292
2017-06-01T06:01:38.521Z,4500
2017-06-01T06:02:53.001Z,4636
2017-06-01T06:04:05.827Z,5040
2017-06-01T06:05:21.302Z,4968
2017-06-01T06:06:36.367Z,4692
2017-06-01T06:07:52.035Z,4648
2017-06-01T06:09:06.405Z,4752
2017-06-01T06:10:21.494Z,4608
2017-06-01T06:11:36.916Z,4616
2017-06-01T06:12:52.651Z,4600
2017-06-01T06:14:08.113Z,4616
2017-06-01T06:15:23.587Z,4732
2017-06-01T06:16:38.978Z,4764
2017-06-01T06:17:54.693Z,4884
2017-06-01T06:19:10.153Z,5188
2017-06-01T06:20:24.589Z,5392
2017-06-01T06:21:40.063Z,5024
2017-06-01T06:22:52.878Z,5036
2017-06-01T06:24:07.103Z,5256
2017-06-01T06:25:21.227Z,5452
2017-06-01T06:26:36.269Z,5252
2017-06-01T06:27:51.744Z,5188
2017-06-01T06:29:06.107Z,5316
2017-06-01T06:30:21.592Z,5592
2017-06-01T06:31:36.999Z,5016
2017-06-01T06:32:52.447Z,5496
2017-06-01T06:34:06.823Z,5340
2017-06-01T06:35:22.332Z,5684
2017-06-01T06:36:37.936Z,5944
2017-06-01T06:37:52.194Z,4724
2017-06-01T06:39:06.589Z,4404
2017-06-01T06:40:21.985Z,5260
2017-06-01T06:41:37.412Z,4632
2017-06-01T06:42:52.911Z,4884
2017-06-01T06:44:07.273Z,6056
2017-06-01T06:45:22.726Z,5948
2017-06-01T06:46:38.179Z,5640
2017-06-01T06:47:53.646Z,5600
2017-06-01T06:49:07.914Z,5476
2017-06-01T06:50:23.375Z,4488
2017-06-01T06:51:38.793Z,4776
2017-06-01T06:52:54.379Z,5636
2017-06-01T06:54:09.002Z,5420
2017-06-01T06:55:23.218Z,5488
2017-06-01T06:56:37.372Z,4740
2017-06-01T06:57:52.771Z,5456
2017-06-01T06:59:06.871Z,5320
2017-06-01T07:00:22.530Z,5300
2017-06-01T07:01:37.947Z,5468
2017-06-01T07:02:52.078Z,5588
2017-06-01T07:04:07.532Z,5644
2017-06-01T07:05:21.892Z,5700
2017-06-01T07:06:37.356Z,5900
2017-06-01T07:07:52.840Z,6128
2017-06-01T07:09:08.279Z,6508
2017-06-01T07:10:23.931Z,7296
2017-06-01T07:11:39.366Z,7284
2017-06-01T07:12:54.916Z,6776
2017-06-01T07:14:10.323Z,6816
2017-06-01T07:15:24.546Z,6196
2017-06-01T07:16:40.016Z,6068
2017-06-01T07:17:55.459Z,5912
2017-06-01T07:19:10.894Z,5968
2017-06-01T07:20:26.545Z,5944
2017-06-01T07:21:39.254Z,5908
2017-06-01T07:23:24.255Z,5996
2017-06-01T07:24:39.926Z,6012
2017-06-01T07:25:55.458Z,6060
2017-06-01T07:27:09.590Z,5988
2017-06-01T07:28:24.979Z,6072
2017-06-01T07:29:40.883Z,5968
2017-06-01T07:30:55.059Z,6192
2017-06-01T07:32:10.452Z,6236
2017-06-01T07:33:23.153Z,6280
2017-06-01T07:34:38.780Z,6324
2017-06-01T07:35:54.255Z,6400
2017-06-01T07:37:09.700Z,6464
2017-06-01T07:38:23.767Z,6584
2017-06-01T07:39:38.155Z,6692
2017-06-01T07:40:53.584Z,6828
2017-06-01T07:42:09.062Z,6756
2017-06-01T07:43:24.583Z,6708
2017-06-01T07:44:38.956Z,6740
2017-06-01T07:45:54.399Z,6776
2017-06-01T07:47:10.189Z,6740
2017-06-01T07:48:25.867Z,6596
2017-06-01T07:49:41.788Z,6580
2017-06-01T07:50:57.258Z,6728
2017-06-01T07:52:12.694Z,6748
2017-06-01T07:53:26.803Z,6812
2017-06-01T07:54:41.121Z,6820
2017-06-01T07:55:53.997Z,6852
2017-06-01T07:57:09.456Z,6896
2017-06-01T07:58:24.954Z,6928
2017-06-01T07:59:40.356Z,7064
2017-06-01T08:00:56.310Z,7216
2017-06-01T08:02:10.487Z,7316
2017-06-01T08:03:24.486Z,7364
2017-06-01T08:04:39.923Z,7496
2017-06-01T08:05:54.182Z,7524
2017-06-01T08:07:09.590Z,7592
2017-06-01T08:08:23.761Z,7712
2017-06-01T08:09:39.165Z,7696
2017-06-01T08:10:54.904Z,7808
2017-06-01T08:12:09.050Z,7824
2017-06-01T08:13:24.469Z,7940
2017-06-01T08:14:39.874Z,8076
2017-06-01T08:15:55.969Z,8144
2017-06-01T08:17:11.385Z,8100
2017-06-01T08:18:26.887Z,8080
2017-06-01T08:19:42.563Z,8320
2017-06-01T08:20:58.200Z,8364
2017-06-01T08:22:13.699Z,8280
2017-06-01T08:23:29.153Z,8312
2017-06-01T08:24:44.594Z,8312
2017-06-01T08:26:00.241Z,8332
2017-06-01T08:27:15.770Z,8388
2017-06-01T08:28:29.943Z,8396
2017-06-01T08:29:45.468Z,8464
2017-06-01T08:31:01.137Z,8540
2017-06-01T08:32:16.651Z,8716
2017-06-01T08:33:32.083Z,9172
2017-06-01T08:34:47.530Z,9808
2017-06-01T08:36:01.971Z,10504
2017-06-01T08:37:16.208Z,11156
2017-06-01T08:38:30.349Z,31584
2017-06-01T08:39:45.773Z,64736
2017-06-01T08:41:01.416Z,71040
2017-06-01T08:42:15.562Z,80128
2017-06-01T08:43:31.073Z,64032
2017-06-01T08:44:46.612Z,75040
2017-06-01T08:46:02.235Z,86240
2017-06-01T08:47:17.866Z,79008
2017-06-01T08:48:33.351Z,65376
2017-06-01T08:49:48.846Z,68640
2017-06-01T08:51:04.518Z,81536
2017-06-01T08:52:19.998Z,81056
2017-06-01T08:53:35.492Z,82720
2017-06-01T08:54:51.314Z,81024
2017-06-01T08:56:07.573Z,80992
2017-06-01T08:57:23.052Z,77856
2017-06-01T08:58:38.755Z,81344
2017-06-01T08:59:54.180Z,98688
2017-06-01T09:01:09.856Z,86944
2017-06-01T09:02:25.415Z,71680
2017-06-01T09:03:39.739Z,74944
2017-06-01T09:04:55.242Z,93312
2017-06-01T09:06:10.535Z,100320
2017-06-01T09:07:24.705Z,100704
2017-06-01T09:08:38.939Z,81920
2017-06-01T09:09:53.099Z,60320
2017-06-01T09:11:08.697Z,78464
2017-06-01T09:12:20.325Z,106176
2017-06-01T09:13:35.785Z,101280
2017-06-01T09:14:51.224Z,70752
2017-06-01T09:16:07.116Z,76544
2017-06-01T09:17:22.608Z,96704
2017-06-01T09:18:38.086Z,81248
2017-06-01T09:19:53.545Z,62144
2017-06-01T09:21:09.223Z,84640
2017-06-01T09:22:24.266Z,125888
2017-06-01T09:23:39.679Z,136832
2017-06-01T09:24:53.919Z,105696
2017-06-01T09:26:07.871Z,81984
2017-06-01T09:27:23.603Z,80896
2017-06-01T09:28:39.104Z,76768
2017-06-01T09:29:53.250Z,78912
2017-06-01T09:31:08.660Z,89856
2017-06-01T09:32:24.332Z,91744
2017-06-01T09:33:39.985Z,114496
2017-06-01T09:34:54.472Z,127136
2017-06-01T09:36:10.151Z,99520
2017-06-01T09:37:25.842Z,80096
2017-06-01T09:38:41.280Z,92608
2017-06-01T09:39:56.733Z,101952
2017-06-01T09:41:10.900Z,97664
2017-06-01T09:42:25.296Z,105440
2017-06-01T09:43:40.907Z,114176
2017-06-01T09:44:54.966Z,99296
2017-06-01T09:46:10.417Z,92576
2017-06-01T09:47:26.106Z,121152
2017-06-01T09:48:41.592Z,145824
2017-06-01T09:49:57.047Z,131360
2017-06-01T09:51:12.748Z,108192
2017-06-01T09:52:27.106Z,99168
2017-06-01T09:53:41.550Z,75104
2017-06-01T09:54:57.314Z,83008
2017-06-01T09:56:43.556Z,117376
2017-06-01T09:57:59.235Z,108896
2017-06-01T09:59:14.315Z,101632
2017-06-01T10:00:29.857Z,99200
2017-06-01T10:01:43.906Z,98656
2017-06-01T10:02:59.535Z,99712
2017-06-01T10:04:13.742Z,92672
2017-06-01T10:05:29.250Z,101504
2017-06-01T10:06:44.898Z,126016
2017-06-01T10:07:59.382Z,129536
2017-06-01T10:09:14.829Z,110368
2017-06-01T10:10:30.387Z,108576
2017-06-01T10:12:15.759Z,118400
2017-06-01T10:13:30.178Z,115488
2017-06-01T10:14:45.655Z,122752
2017-06-01T10:16:01.186Z,135360
2017-06-01T10:17:16.689Z,126944
2017-06-01T10:18:32.354Z,119584
2017-06-01T10:19:46.532Z,127840
2017-06-01T10:21:02.050Z,126432
2017-06-01T10:22:17.595Z,133504
2017-06-01T10:23:33.324Z,147232
2017-06-01T10:24:48.757Z,139200
2017-06-01T10:26:04.376Z,123040
2017-06-01T10:27:19.902Z,111776
2017-06-01T10:28:35.525Z,96288
2017-06-01T10:29:48.293Z,113408
2017-06-01T10:31:02.434Z,155840
2017-06-01T10:32:17.884Z,153248
2017-06-01T10:33:33.559Z,113024
2017-06-01T10:34:49.026Z,107424
2017-06-01T10:36:04.578Z,108832
2017-06-01T10:37:20.283Z,87328
2017-06-01T10:38:35.895Z,81056
2017-06-01T10:39:51.412Z,96256
2017-06-01T10:41:07.151Z,117184
2017-06-01T10:42:20.026Z,145984
2017-06-01T10:43:35.731Z,153024
2017-06-01T10:44:51.452Z,131008
2017-06-01T10:46:07.002Z,118496
2017-06-01T10:47:22.486Z,131936
2017-06-01T10:48:38.337Z,132320
2017-06-01T10:49:52.631Z,135168
2017-06-01T10:51:06.738Z,161216
2017-06-01T10:52:22.323Z,156224
2017-06-01T10:53:37.910Z,127680
2017-06-01T10:54:53.666Z,120000
2017-06-01T10:56:09.172Z,123712
2017-06-01T10:57:24.530Z,130272
2017-06-01T10:58:40.292Z,149024
2017-06-01T10:59:55.811Z,135104
2017-06-01T11:01:11.327Z,108672
2017-06-01T11:02:25.570Z,120416
2017-06-01T11:03:41.232Z,116384
2017-06-01T11:04:56.722Z,83328
2017-06-01T11:06:12.150Z,94880
2017-06-01T11:07:27.636Z,128832
2017-06-01T11:08:42.022Z,127264
2017-06-01T11:09:56.171Z,111296
2017-06-01T11:11:11.722Z,132224
2017-06-01T11:12:25.925Z,151136
2017-06-01T11:13:41.712Z,117568
2017-06-01T11:14:57.333Z,77440
2017-06-01T11:16:12.915Z,97952
2017-06-01T11:17:27.331Z,155200
2017-06-01T11:18:42.792Z,171648
2017-06-01T11:19:58.513Z,147456
2017-06-01T11:21:14.016Z,147616
2017-06-01T11:22:29.565Z,176544
2017-06-01T11:23:45.020Z,179264
2017-06-01T11:24:59.421Z,154656
2017-06-01T11:26:14.913Z,128320
2017-06-01T11:27:28.919Z,127872
2017-06-01T11:28:44.484Z,128352
2017-06-01T11:30:00.185Z,88256
2017-06-01T11:31:15.648Z,70336
2017-06-01T11:32:29.866Z,105344
2017-06-01T11:33:45.025Z,137600
2017-06-01T11:34:59.524Z,118848
2017-06-01T11:36:15.017Z,103712
2017-06-01T11:37:29.188Z,118880
2017-06-01T11:38:44.817Z,107744
2017-06-01T11:40:00.529Z,76064
2017-06-01T11:41:16.031Z,90592
2017-06-01T11:42:31.534Z,134368
2017-06-01T11:43:46.913Z,145344
2017-06-01T11:45:02.626Z,120928
2017-06-01T11:46:18.017Z,116768
2017-06-01T11:47:32.166Z,148736
2017-06-01T11:48:46.549Z,155744
2017-06-01T11:50:02.413Z,111008
2017-06-01T11:51:18.321Z,83360
2017-06-01T11:52:33.933Z,104192
2017-06-01T11:53:48.113Z,119936
2017-06-01T11:55:03.832Z,115456
2017-06-01T11:56:19.302Z,114560
2017-06-01T11:57:35.017Z,115296
2017-06-01T11:58:49.389Z,110624
2017-06-01T12:00:05.707Z,110624
2017-06-01T12:01:21.215Z,123264
2017-06-01T12:02:36.723Z,122464
2017-06-01T12:03:52.213Z,104064
2017-06-01T12:05:07.904Z,92736
2017-06-01T12:06:23.342Z,113632
2017-06-01T12:07:38.792Z,129024
2017-06-01T12:08:54.300Z,109760
2017-06-01T12:10:09.941Z,85632
2017-06-01T12:11:24.155Z,89024
2017-06-01T12:12:38.421Z,105504
2017-06-01T12:13:53.856Z,106336
2017-06-01T12:15:09.550Z,89664
2017-06-01T12:16:25.263Z,78368
2017-06-01T12:17:40.700Z,87488
2017-06-01T12:18:56.385Z,102688
2017-06-01T12:20:12.086Z,107520
2017-06-01T12:21:27.619Z,99872
2017-06-01T12:22:43.099Z,76512
2017-06-01T12:23:58.765Z,68032
2017-06-01T12:25:14.499Z,90496
2017-06-01T12:26:29.977Z,122048
2017-06-01T12:27:45.107Z,122720
2017-06-01T12:29:00.615Z,89984
2017-06-01T12:30:15.988Z,72800
2017-06-01T12:31:29.154Z,93632
2017-06-01T12:32:43.314Z,126240
2017-06-01T12:33:58.788Z,129792
2017-06-01T12:35:14.296Z,96064
2017-06-01T12:36:29.992Z,77664
2017-06-01T12:37:44.259Z,92192
2017-06-01T12:38:59.721Z,93664
2017-06-01T12:40:15.150Z,78656
2017-06-01T12:41:31.175Z,97600
2017-06-01T12:42:45.549Z,112960
2017-06-01T12:43:59.496Z,101408
2017-06-01T12:45:15.053Z,76256
2017-06-01T12:46:30.543Z,73952
2017-06-01T12:47:46.082Z,95296
2017-06-01T12:49:00.314Z,116928
2017-06-01T12:50:16.022Z,113216
2017-06-01T12:51:31.495Z,82912
2017-06-01T12:52:46.981Z,80576
2017-06-01T12:54:02.494Z,112288
2017-06-01T12:55:17.968Z,126752
2017-06-01T12:56:33.364Z,99456
2017-06-01T12:57:49.056Z,85728
2017-06-01T12:59:35.390Z,130272
2017-06-01T13:00:50.892Z,137248
2017-06-01T13:02:06.334Z,114304
2017-06-01T13:03:21.851Z,105248
2017-06-01T13:04:37.267Z,123328
2017-06-01T13:05:52.848Z,134240
2017-06-01T13:07:07.341Z,109952
2017-06-01T13:08:23.000Z,84928
2017-06-01T13:09:38.442Z,89408
2017-06-01T13:10:52.645Z,98400
2017-06-01T13:12:08.105Z,97216
2017-06-01T13:13:23.626Z,108416
2017-06-01T13:14:39.156Z,125536
2017-06-01T13:15:54.835Z,115744
2017-06-01T13:17:10.404Z,94624
2017-06-01T13:18:24.600Z,97632
2017-06-01T13:19:40.279Z,110208
2017-06-01T13:20:55.754Z,111296
2017-06-01T13:22:11.336Z,98592
2017-06-01T13:23:25.492Z,90688
2017-06-01T13:24:40.994Z,76864
2017-06-01T13:25:56.562Z,81600
2017-06-01T13:27:10.761Z,92384
2017-06-01T13:28:26.285Z,95296
2017-06-01T13:29:41.797Z,96896
2017-06-01T13:30:57.303Z,101376
2017-06-01T13:32:13.203Z,80960
2017-06-01T13:33:28.690Z,62912
2017-06-01T13:34:42.738Z,80192
2017-06-01T13:35:58.226Z,107456
2017-06-01T13:37:13.949Z,103648
2017-06-01T13:38:29.470Z,61600
2017-06-01T13:39:43.581Z,46656
2017-06-01T13:40:57.800Z,78880
2017-06-01T13:42:13.250Z,125216
2017-06-01T13:43:28.666Z,116992
2017-06-01T13:45:15.413Z,44768
2017-06-01T13:46:31.283Z,45216
2017-06-01T13:47:45.507Z,98976
2017-06-01T13:48:59.614Z,123712
2017-06-01T13:50:13.473Z,100224
2017-06-01T13:51:27.645Z,75008
2017-06-01T13:52:43.127Z,72672
2017-06-01T13:53:58.600Z,79744
2017-06-01T13:55:12.761Z,93728
2017-06-01T13:56:28.177Z,87264
2017-06-01T13:57:43.887Z,77856
2017-06-01T13:58:59.389Z,86304
2017-06-01T14:00:14.775Z,99456
2017-06-01T14:01:29.003Z,75200
2017-06-01T14:02:44.538Z,56800
2017-06-01T14:03:59.992Z,67360
2017-06-01T14:05:14.188Z,78976
2017-06-01T14:06:29.938Z,84832
2017-06-01T14:07:44.121Z,79584
2017-06-01T14:08:59.653Z,78688
2017-06-01T14:10:15.187Z,75680
2017-06-01T14:11:30.555Z,75520
2017-06-01T14:12:45.976Z,82720
2017-06-01T14:14:00.132Z,83328
2017-06-01T14:15:15.921Z,63424
2017-06-01T14:16:31.645Z,53216
2017-06-01T14:17:47.077Z,66784
2017-06-01T14:19:02.850Z,85696
2017-06-01T14:20:18.404Z,92512
2017-06-01T14:21:34.138Z,97184
2017-06-01T14:22:49.594Z,88512
2017-06-01T14:24:05.442Z,70848
2017-06-01T14:25:21.427Z,78144
2017-06-01T14:26:37.430Z,63552
2017-06-01T14:27:52.901Z,66240
2017-06-01T14:29:08.438Z,65792
2017-06-01T14:30:23.887Z,72256
2017-06-01T14:31:40.270Z,68320
2017-06-01T14:32:55.788Z,57248
2017-06-01T14:34:11.296Z,56928
2017-06-01T14:35:27.169Z,75936
2017-06-01T14:36:42.862Z,88512
2017-06-01T14:37:57.039Z,78400
2017-06-01T14:39:11.293Z,56320
2017-06-01T14:40:26.790Z,58432
2017-06-01T14:41:42.501Z,86944
2017-06-01T14:42:57.938Z,96992
2017-06-01T14:44:44.315Z,65760
2017-06-01T14:45:59.976Z,63776
2017-06-01T14:47:15.732Z,69312
2017-06-01T14:48:29.870Z,67264
2017-06-01T14:49:45.339Z,52128
2017-06-01T14:51:00.778Z,53696
2017-06-01T14:52:16.374Z,56128
2017-06-01T14:53:31.872Z,56224
2017-06-01T14:54:46.074Z,43136
2017-06-01T14:55:58.833Z,51424
2017-06-01T14:57:14.498Z,76064
2017-06-01T14:58:29.956Z,71808
2017-06-01T14:59:45.385Z,53760
2017-06-01T15:01:00.874Z,64064
2017-06-01T15:02:16.760Z,45440
2017-06-01T15:03:32.284Z,16608
2017-06-01T15:04:47.692Z,14496
2017-06-01T15:06:01.744Z,13472
2017-06-01T15:07:17.791Z,12512
2017-06-01T15:08:33.215Z,12048
2017-06-01T15:09:48.686Z,11812
2017-06-01T15:11:04.067Z,11364
2017-06-01T15:12:20.142Z,11172
2017-06-01T15:13:35.658Z,11012
2017-06-01T15:14:49.686Z,10880
2017-06-01T15:16:05.141Z,10740
2017-06-01T15:17:20.883Z,10508
2017-06-01T15:18:35.063Z,10464
2017-06-01T15:19:49.027Z,10464
2017-06-01T15:21:04.548Z,10332
2017-06-01T15:22:20.308Z,10272
2017-06-01T15:23:35.859Z,10184
2017-06-01T15:24:51.358Z,10124
2017-06-01T15:26:06.938Z,10180
2017-06-01T15:27:22.672Z,10076
2017-06-01T15:28:38.273Z,10060
2017-06-01T15:29:52.444Z,10320
2017-06-01T15:31:07.916Z,10628
2017-06-01T15:32:23.636Z,10896
2017-06-01T15:33:39.113Z,11248
2017-06-01T15:34:54.635Z,11160
2017-06-01T15:36:10.266Z,10988
2017-06-01T15:37:26.066Z,10856
2017-06-01T15:38:41.772Z,10852
2017-06-01T15:39:57.466Z,10744
2017-06-01T15:41:12.990Z,9988
2017-06-01T15:42:28.751Z,9660
2017-06-01T15:43:44.265Z,9844
2017-06-01T15:44:58.346Z,9588
2017-06-01T15:46:12.493Z,9164
2017-06-01T15:47:28.542Z,9096
2017-06-01T15:48:44.075Z,9012
2017-06-01T15:49:59.509Z,8804
2017-06-01T15:51:14.915Z,8528
2017-06-01T15:52:30.595Z,8384
2017-06-01T15:53:46.032Z,7948
2017-06-01T15:55:00.210Z,7648
2017-06-01T15:56:15.716Z,7308
2017-06-01T15:57:31.481Z,7000
2017-06-01T15:58:46.935Z,6764
2017-06-01T16:00:01.117Z,6564
2017-06-01T16:01:16.554Z,6500
2017-06-01T16:02:32.516Z,6392
2017-06-01T16:03:47.949Z,6340
2017-06-01T16:05:03.680Z,6156
2017-06-01T16:06:19.131Z,6108
2017-06-01T16:07:34.967Z,5972
2017-06-01T16:08:50.454Z,5900
2017-06-01T16:10:05.927Z,5660
2017-06-01T16:11:19.946Z,5700
2017-06-01T16:12:35.611Z,5632
2017-06-01T16:13:51.264Z,5584
2017-06-01T16:15:06.874Z,5572
2017-06-01T16:16:21.029Z,5464
2017-06-01T16:17:36.768Z,5344
2017-06-01T16:18:52.328Z,5216
2017-06-01T16:20:06.446Z,5168
2017-06-01T16:21:21.944Z,5092
2017-06-01T16:22:35.900Z,5024
2017-06-01T16:23:50.255Z,4968
2017-06-01T16:25:04.386Z,4892
2017-06-01T16:26:19.920Z,4792
2017-06-01T16:27:35.907Z,4660
2017-06-01T16:28:51.217Z,4516
2017-06-01T16:30:05.554Z,4356
2017-06-01T16:31:21.230Z,4196
2017-06-01T16:32:36.733Z,4056
2017-06-01T16:33:52.646Z,3956
2017-06-01T16:35:08.269Z,3888
2017-06-01T16:36:23.713Z,3808
2017-06-01T16:37:39.029Z,3740
2017-06-01T16:38:55.026Z,3680
2017-06-01T16:41:39.565Z,3572
2017-06-01T16:42:55.353Z,3528